Weather at Surfside Seaplane Base

Public forecast

Using degrees Fahrenheit for public forecast. Weather courtesy of forecast.io.

Closest aviation weather report (METAR) to Surfside Seaplane Base

Closest report is Anoka County-Blaine (Janes Field) Airport, 4.0 nm (7.4 km) W. Retrieved 2021/01/19 11:35 UTC (0 seconds ago):

KANE 191135Z AUTO 00000KT 10SM SCT070 BKN080 OVC095 M10/M12 A3008 RMK AO2

Closest aviation forecast (TAF) to Surfside Seaplane Base

Forecast is more than 12 hours old.

Closest forecast is Anoka County-Blaine (Janes Field) Airport, 4.0 nm (7.4 km) W. Retrieved 2018/02/05 00:21 UTC (3 years ago):

TAF KANE 052320Z 0600/0624 28008KT P6SM FEW025 FM060300 30005KT P6SM FEW250 FM061600 21005KT P6SM SCT250 AMD NOT SKED